sensor_id;sensor_type;location;lat;lon;timestamp;temperature;humidity
64997;SHT31;51545;51.568;6.998;2022-09-27T00:00:28;10.48;99.99
64997;SHT31;51545;51.568;6.998;2022-09-27T00:02:54;10.46;99.99
64997;SHT31;51545;51.568;6.998;2022-09-27T00:05:19;10.43;99.99
64997;SHT31;51545;51.568;6.998;2022-09-27T00:07:45;10.46;99.99
64997;SHT31;51545;51.568;6.998;2022-09-27T00:10:11;10.42;99.99
64997;SHT31;51545;51.568;6.998;2022-09-27T00:12:37;10.36;99.99
64997;SHT31;51545;51.568;6.998;2022-09-27T00:15:03;10.32;99.99
64997;SHT31;51545;51.568;6.998;2022-09-27T00:17:30;10.33;99.99
64997;SHT31;51545;51.568;6.998;2022-09-27T00:19:57;10.31;99.99
64997;SHT31;51545;51.568;6.998;2022-09-27T00:22:24;10.33;99.99
64997;SHT31;51545;51.568;6.998;2022-09-27T00:24:50;10.38;99.99
64997;SHT31;51545;51.568;6.998;2022-09-27T00:27:16;10.33;99.99
64997;SHT31;51545;51.568;6.998;2022-09-27T00:29:43;10.26;99.99
64997;SHT31;51545;51.568;6.998;2022-09-27T00:32:10;10.33;99.99
64997;SHT31;51545;51.568;6.998;2022-09-27T00:34:38;10.35;99.99
64997;SHT31;51545;51.568;6.998;2022-09-27T00:37:04;10.29;99.99
64997;SHT31;51545;51.568;6.998;2022-09-27T00:39:30;10.31;99.99
64997;SHT31;51545;51.568;6.998;2022-09-27T00:41:55;10.25;99.99
64997;SHT31;51545;51.568;6.998;2022-09-27T00:47:00;10.29;99.99
64997;SHT31;51545;51.568;6.998;2022-09-27T00:49:31;10.29;99.99
64997;SHT31;51545;51.568;6.998;2022-09-27T00:52:04;10.21;99.99
64997;SHT31;51545;51.568;6.998;2022-09-27T00:54:35;10.20;99.99
64997;SHT31;51545;51.568;6.998;2022-09-27T00:57:02;10.25;99.99
64997;SHT31;51545;51.568;6.998;2022-09-27T00:59:39;10.21;99.99
64997;SHT31;51545;51.568;6.998;2022-09-27T01:02:09;10.21;99.99
64997;SHT31;51545;51.568;6.998;2022-09-27T01:04:35;10.18;99.99
64997;SHT31;51545;51.568;6.998;2022-09-27T01:07:03;10.17;99.99
64997;SHT31;51545;51.568;6.998;2022-09-27T01:09:29;10.22;99.99
64997;SHT31;51545;51.568;6.998;2022-09-27T01:12:12;10.22;99.99
64997;SHT31;51545;51.568;6.998;2022-09-27T01:15:07;10.20;99.99
64997;SHT31;51545;51.568;6.998;2022-09-27T01:29:08;10.21;99.99
64997;SHT31;51545;51.568;6.998;2022-09-27T01:31:48;10.20;99.99
64997;SHT31;51545;51.568;6.998;2022-09-27T01:36:50;10.22;99.99
64997;SHT31;51545;51.568;6.998;2022-09-27T01:47:13;10.22;99.99
64997;SHT31;51545;51.568;6.998;2022-09-27T01:49:54;10.21;99.99
64997;SHT31;51545;51.568;6.998;2022-09-27T01:52:43;10.20;99.99
64997;SHT31;51545;51.568;6.998;2022-09-27T01:55:14;10.15;99.84
64997;SHT31;51545;51.568;6.998;2022-09-27T01:57:45;10.14;99.76
64997;SHT31;51545;51.568;6.998;2022-09-27T02:00:19;10.17;99.79
64997;SHT31;51545;51.568;6.998;2022-09-27T02:02:55;10.17;99.84
64997;SHT31;51545;51.568;6.998;2022-09-27T02:05:25;10.15;99.77
64997;SHT31;51545;51.568;6.998;2022-09-27T02:07:57;10.20;99.90
64997;SHT31;51545;51.568;6.998;2022-09-27T02:10:36;10.12;99.86
64997;SHT31;51545;51.568;6.998;2022-09-27T02:18:18;10.05;99.74
64997;SHT31;51545;51.568;6.998;2022-09-27T02:20:59;10.08;99.85
64997;SHT31;51545;51.568;6.998;2022-09-27T02:29:38;10.14;99.99
64997;SHT31;51545;51.568;6.998;2022-09-27T02:31:37;10.08;99.99
64997;SHT31;51545;51.568;6.998;2022-09-27T02:34:07;10.10;99.99
64997;SHT31;51545;51.568;6.998;2022-09-27T02:36:37;10.12;99.99
64997;SHT31;51545;51.568;6.998;2022-09-27T02:39:03;10.12;99.99
64997;SHT31;51545;51.568;6.998;2022-09-27T02:41:29;10.10;99.99
64997;SHT31;51545;51.568;6.998;2022-09-27T02:43:55;10.04;99.99
64997;SHT31;51545;51.568;6.998;2022-09-27T02:46:31;10.01;99.95
64997;SHT31;51545;51.568;6.998;2022-09-27T02:54:18;10.10;99.99
64997;SHT31;51545;51.568;6.998;2022-09-27T02:57:02;10.12;99.99
64997;SHT31;51545;51.568;6.998;2022-09-27T03:02:31;10.03;99.97
64997;SHT31;51545;51.568;6.998;2022-09-27T03:05:03;9.98;99.99
64997;SHT31;51545;51.568;6.998;2022-09-27T03:07:32;9.93;99.99
64997;SHT31;51545;51.568;6.998;2022-09-27T03:09:59;9.87;99.90
64997;SHT31;51545;51.568;6.998;2022-09-27T03:12:24;9.86;99.91
64997;SHT31;51545;51.568;6.998;2022-09-27T03:14:51;9.77;99.84
64997;SHT31;51545;51.568;6.998;2022-09-27T03:17:19;9.77;99.99
64997;SHT31;51545;51.568;6.998;2022-09-27T03:19:44;9.77;99.85
64997;SHT31;51545;51.568;6.998;2022-09-27T03:22:10;9.71;99.72
64997;SHT31;51545;51.568;6.998;2022-09-27T03:24:35;9.70;99.75
64997;SHT31;51545;51.568;6.998;2022-09-27T03:27:01;9.59;99.65
64997;SHT31;51545;51.568;6.998;2022-09-27T03:29:27;9.62;99.70
64997;SHT31;51545;51.568;6.998;2022-09-27T03:31:53;9.62;99.66
64997;SHT31;51545;51.568;6.998;2022-09-27T03:34:18;9.62;99.80
64997;SHT31;51545;51.568;6.998;2022-09-27T03:36:44;9.63;99.88
64997;SHT31;51545;51.568;6.998;2022-09-27T03:39:09;9.69;99.87
64997;SHT31;51545;51.568;6.998;2022-09-27T03:41:35;9.71;99.88
64997;SHT31;51545;51.568;6.998;2022-09-27T03:44:00;9.77;99.85
64997;SHT31;51545;51.568;6.998;2022-09-27T03:46:26;9.84;99.99
64997;SHT31;51545;51.568;6.998;2022-09-27T03:48:51;9.82;99.99
64997;SHT31;51545;51.568;6.998;2022-09-27T03:51:17;9.76;99.99
64997;SHT31;51545;51.568;6.998;2022-09-27T03:53:42;9.74;99.99
64997;SHT31;51545;51.568;6.998;2022-09-27T03:56:08;9.80;99.99
64997;SHT31;51545;51.568;6.998;2022-09-27T03:58:34;9.80;99.99
64997;SHT31;51545;51.568;6.998;2022-09-27T04:01:00;9.73;99.90
64997;SHT31;51545;51.568;6.998;2022-09-27T04:03:25;9.73;99.99
64997;SHT31;51545;51.568;6.998;2022-09-27T04:05:53;9.69;99.83
64997;SHT31;51545;51.568;6.998;2022-09-27T04:08:19;9.66;99.90
64997;SHT31;51545;51.568;6.998;2022-09-27T04:10:46;9.65;99.87
64997;SHT31;51545;51.568;6.998;2022-09-27T04:13:12;9.59;99.73
64997;SHT31;51545;51.568;6.998;2022-09-27T04:15:38;9.56;99.70
64997;SHT31;51545;51.568;6.998;2022-09-27T04:18:03;9.59;99.81
64997;SHT31;51545;51.568;6.998;2022-09-27T04:20:29;9.59;99.77
64997;SHT31;51545;51.568;6.998;2022-09-27T04:22:55;9.49;99.64
64997;SHT31;51545;51.568;6.998;2022-09-27T04:25:21;9.48;99.72
64997;SHT31;51545;51.568;6.998;2022-09-27T04:27:46;9.48;99.79
64997;SHT31;51545;51.568;6.998;2022-09-27T04:30:12;9.45;99.73
64997;SHT31;51545;51.568;6.998;2022-09-27T04:32:42;9.45;99.89
64997;SHT31;51545;51.568;6.998;2022-09-27T04:35:09;9.46;99.99
64997;SHT31;51545;51.568;6.998;2022-09-27T04:37:54;9.39;99.88
64997;SHT31;51545;51.568;6.998;2022-09-27T04:40:20;9.39;99.95
64997;SHT31;51545;51.568;6.998;2022-09-27T04:42:49;9.38;99.88
64997;SHT31;51545;51.568;6.998;2022-09-27T04:45:15;9.36;99.81
64997;SHT31;51545;51.568;6.998;2022-09-27T04:47:42;9.32;99.75
64997;SHT31;51545;51.568;6.998;2022-09-27T04:50:08;9.34;99.72
64997;SHT31;51545;51.568;6.998;2022-09-27T04:52:34;9.35;99.79
64997;SHT31;51545;51.568;6.998;2022-09-27T04:54:59;9.32;99.56
64997;SHT31;51545;51.568;6.998;2022-09-27T04:57:25;9.35;99.52
64997;SHT31;51545;51.568;6.998;2022-09-27T04:59:50;9.28;99.55
64997;SHT31;51545;51.568;6.998;2022-09-27T05:02:16;9.29;99.55
64997;SHT31;51545;51.568;6.998;2022-09-27T05:04:42;9.27;99.44
64997;SHT31;51545;51.568;6.998;2022-09-27T05:07:08;9.27;99.44
64997;SHT31;51545;51.568;6.998;2022-09-27T05:09:33;9.25;99.48
64997;SHT31;51545;51.568;6.998;2022-09-27T05:11:59;9.24;99.41
64997;SHT31;51545;51.568;6.998;2022-09-27T05:14:25;9.25;99.48
64997;SHT31;51545;51.568;6.998;2022-09-27T05:16:51;9.25;99.40
64997;SHT31;51545;51.568;6.998;2022-09-27T05:19:17;9.25;99.36
64997;SHT31;51545;51.568;6.998;2022-09-27T05:21:43;9.32;99.38
64997;SHT31;51545;51.568;6.998;2022-09-27T05:24:08;9.25;99.19
64997;SHT31;51545;51.568;6.998;2022-09-27T05:26:34;9.28;99.30
64997;SHT31;51545;51.568;6.998;2022-09-27T05:29:01;9.28;99.18
64997;SHT31;51545;51.568;6.998;2022-09-27T05:31:27;9.24;98.90
64997;SHT31;51545;51.568;6.998;2022-09-27T05:33:53;9.21;98.92
64997;SHT31;51545;51.568;6.998;2022-09-27T05:36:19;9.22;98.80
64997;SHT31;51545;51.568;6.998;2022-09-27T05:38:45;9.25;98.80
64997;SHT31;51545;51.568;6.998;2022-09-27T05:41:10;9.22;98.66
64997;SHT31;51545;51.568;6.998;2022-09-27T05:43:36;9.22;98.49
64997;SHT31;51545;51.568;6.998;2022-09-27T05:46:02;9.27;98.78
64997;SHT31;51545;51.568;6.998;2022-09-27T05:48:29;9.21;98.71
64997;SHT31;51545;51.568;6.998;2022-09-27T05:50:55;9.24;98.46
64997;SHT31;51545;51.568;6.998;2022-09-27T05:53:21;9.20;98.27
64997;SHT31;51545;51.568;6.998;2022-09-27T05:55:46;9.18;98.23
64997;SHT31;51545;51.568;6.998;2022-09-27T05:58:13;9.20;98.35
64997;SHT31;51545;51.568;6.998;2022-09-27T06:00:40;9.24;98.21
64997;SHT31;51545;51.568;6.998;2022-09-27T06:03:07;9.22;97.93
64997;SHT31;51545;51.568;6.998;2022-09-27T06:05:37;9.24;98.00
64997;SHT31;51545;51.568;6.998;2022-09-27T06:08:04;9.21;97.75
64997;SHT31;51545;51.568;6.998;2022-09-27T06:10:31;9.18;97.95
64997;SHT31;51545;51.568;6.998;2022-09-27T06:12:58;9.22;98.00
64997;SHT31;51545;51.568;6.998;2022-09-27T06:15:31;9.20;97.96
64997;SHT31;51545;51.568;6.998;2022-09-27T06:18:01;9.15;97.51
64997;SHT31;51545;51.568;6.998;2022-09-27T06:20:31;9.18;97.44
64997;SHT31;51545;51.568;6.998;2022-09-27T06:25:37;9.21;97.62
64997;SHT31;51545;51.568;6.998;2022-09-27T06:28:03;9.21;97.47
64997;SHT31;51545;51.568;6.998;2022-09-27T06:30:29;9.20;97.55
64997;SHT31;51545;51.568;6.998;2022-09-27T06:32:56;9.24;97.61
64997;SHT31;51545;51.568;6.998;2022-09-27T06:35:26;9.28;97.59
64997;SHT31;51545;51.568;6.998;2022-09-27T06:37:52;9.29;97.84
64997;SHT31;51545;51.568;6.998;2022-09-27T06:40:18;9.24;97.27
64997;SHT31;51545;51.568;6.998;2022-09-27T06:42:44;9.27;97.37
64997;SHT31;51545;51.568;6.998;2022-09-27T06:45:10;9.31;97.38
64997;SHT31;51545;51.568;6.998;2022-09-27T06:47:36;9.27;97.13
64997;SHT31;51545;51.568;6.998;2022-09-27T06:50:02;9.31;96.79
64997;SHT31;51545;51.568;6.998;2022-09-27T06:52:30;9.28;96.44
64997;SHT31;51545;51.568;6.998;2022-09-27T06:54:59;9.27;96.22
64997;SHT31;51545;51.568;6.998;2022-09-27T06:57:29;9.25;96.15
64997;SHT31;51545;51.568;6.998;2022-09-27T07:00:13;9.27;96.24
64997;SHT31;51545;51.568;6.998;2022-09-27T07:02:47;9.38;96.15
64997;SHT31;51545;51.568;6.998;2022-09-27T07:05:14;9.32;96.33
64997;SHT31;51545;51.568;6.998;2022-09-27T07:07:39;9.38;96.38
64997;SHT31;51545;51.568;6.998;2022-09-27T07:10:05;9.36;95.79
64997;SHT31;51545;51.568;6.998;2022-09-27T07:12:30;9.46;95.99
64997;SHT31;51545;51.568;6.998;2022-09-27T07:14:56;9.46;95.88
64997;SHT31;51545;51.568;6.998;2022-09-27T07:17:22;9.46;95.67
64997;SHT31;51545;51.568;6.998;2022-09-27T07:19:48;9.46;95.33
64997;SHT31;51545;51.568;6.998;2022-09-27T07:22:13;9.53;95.71
64997;SHT31;51545;51.568;6.998;2022-09-27T07:24:38;9.55;95.80
64997;SHT31;51545;51.568;6.998;2022-09-27T07:27:04;9.59;95.46
64997;SHT31;51545;51.568;6.998;2022-09-27T07:29:30;9.57;95.04
64997;SHT31;51545;51.568;6.998;2022-09-27T07:31:56;9.65;95.40
64997;SHT31;51545;51.568;6.998;2022-09-27T07:34:21;9.65;94.95
64997;SHT31;51545;51.568;6.998;2022-09-27T07:36:46;9.82;95.15
64997;SHT31;51545;51.568;6.998;2022-09-27T07:39:12;9.82;94.54
64997;SHT31;51545;51.568;6.998;2022-09-27T07:41:37;9.79;94.00
64997;SHT31;51545;51.568;6.998;2022-09-27T07:44:04;9.74;93.64
64997;SHT31;51545;51.568;6.998;2022-09-27T07:46:30;9.77;93.76
64997;SHT31;51545;51.568;6.998;2022-09-27T07:48:55;9.70;93.42
64997;SHT31;51545;51.568;6.998;2022-09-27T07:51:21;9.70;93.69
64997;SHT31;51545;51.568;6.998;2022-09-27T07:53:47;9.62;93.59
64997;SHT31;51545;51.568;6.998;2022-09-27T07:56:12;9.66;93.36
64997;SHT31;51545;51.568;6.998;2022-09-27T07:58:38;9.79;93.15
64997;SHT31;51545;51.568;6.998;2022-09-27T08:01:04;9.80;92.99
64997;SHT31;51545;51.568;6.998;2022-09-27T08:03:29;9.80;93.46
64997;SHT31;51545;51.568;6.998;2022-09-27T08:05:55;9.70;92.48
64997;SHT31;51545;51.568;6.998;2022-09-27T08:08:21;9.89;93.12
64997;SHT31;51545;51.568;6.998;2022-09-27T08:10:46;10.00;92.85
64997;SHT31;51545;51.568;6.998;2022-09-27T08:13:12;10.01;91.65
64997;SHT31;51545;51.568;6.998;2022-09-27T08:15:38;10.12;92.07
64997;SHT31;51545;51.568;6.998;2022-09-27T08:18:04;10.43;92.08
64997;SHT31;51545;51.568;6.998;2022-09-27T08:20:31;10.55;90.24
64997;SHT31;51545;51.568;6.998;2022-09-27T08:22:57;10.57;90.02
64997;SHT31;51545;51.568;6.998;2022-09-27T08:25:22;10.69;90.28
64997;SHT31;51545;51.568;6.998;2022-09-27T08:27:58;10.53;88.99
64997;SHT31;51545;51.568;6.998;2022-09-27T08:30:25;10.67;91.40
64997;SHT31;51545;51.568;6.998;2022-09-27T08:32:56;10.80;90.90
64997;SHT31;51545;51.568;6.998;2022-09-27T08:35:22;10.52;89.87
64997;SHT31;51545;51.568;6.998;2022-09-27T08:37:55;10.48;90.52
64997;SHT31;51545;51.568;6.998;2022-09-27T08:40:22;10.49;89.80
64997;SHT31;51545;51.568;6.998;2022-09-27T08:42:57;10.65;90.24
64997;SHT31;51545;51.568;6.998;2022-09-27T08:45:30;10.67;89.27
64997;SHT31;51545;51.568;6.998;2022-09-27T08:48:04;10.66;89.21
64997;SHT31;51545;51.568;6.998;2022-09-27T08:50:37;10.80;89.86
64997;SHT31;51545;51.568;6.998;2022-09-27T08:58:15;11.00;89.47
64997;SHT31;51545;51.568;6.998;2022-09-27T09:00:50;10.88;89.07
64997;SHT31;51545;51.568;6.998;2022-09-27T09:03:26;10.77;89.36
64997;SHT31;51545;51.568;6.998;2022-09-27T09:20:15;10.73;89.73
64997;SHT31;51545;51.568;6.998;2022-09-27T09:23:19;10.65;89.65
64997;SHT31;51545;51.568;6.998;2022-09-27T09:34:04;10.59;90.49
64997;SHT31;51545;51.568;6.998;2022-09-27T09:37:13;10.59;91.24
64997;SHT31;51545;51.568;6.998;2022-09-27T09:39:40;10.55;90.80
64997;SHT31;51545;51.568;6.998;2022-09-27T09:49:52;10.35;91.72
64997;SHT31;51545;51.568;6.998;2022-09-27T09:52:35;10.33;92.28
64997;SHT31;51545;51.568;6.998;2022-09-27T09:55:12;10.29;92.26
64997;SHT31;51545;51.568;6.998;2022-09-27T10:00:28;10.33;92.91
64997;SHT31;51545;51.568;6.998;2022-09-27T10:02:54;10.38;92.12
64997;SHT31;51545;51.568;6.998;2022-09-27T10:05:24;10.39;92.32
64997;SHT31;51545;51.568;6.998;2022-09-27T10:07:52;10.50;92.73
64997;SHT31;51545;51.568;6.998;2022-09-27T10:10:21;10.67;92.96
64997;SHT31;51545;51.568;6.998;2022-09-27T10:12:47;10.75;92.15
64997;SHT31;51545;51.568;6.998;2022-09-27T10:15:18;10.63;91.58
64997;SHT31;51545;51.568;6.998;2022-09-27T10:17:47;10.86;92.53
64997;SHT31;51545;51.568;6.998;2022-09-27T10:22:53;10.90;92.88
64997;SHT31;51545;51.568;6.998;2022-09-27T10:25:24;10.46;92.69
64997;SHT31;51545;51.568;6.998;2022-09-27T10:28:09;10.36;94.22
64997;SHT31;51545;51.568;6.998;2022-09-27T10:30:57;10.77;95.15
64997;SHT31;51545;51.568;6.998;2022-09-27T10:33:25;10.86;93.77
64997;SHT31;51545;51.568;6.998;2022-09-27T10:35:52;10.77;94.64
64997;SHT31;51545;51.568;6.998;2022-09-27T10:40:44;10.76;94.02
64997;SHT31;51545;51.568;6.998;2022-09-27T10:46:03;10.77;94.25
64997;SHT31;51545;51.568;6.998;2022-09-27T10:48:32;10.86;94.62
64997;SHT31;51545;51.568;6.998;2022-09-27T10:51:02;10.69;94.42
64997;SHT31;51545;51.568;6.998;2022-09-27T10:53:30;10.69;94.79
64997;SHT31;51545;51.568;6.998;2022-09-27T10:55:57;10.67;95.17
64997;SHT31;51545;51.568;6.998;2022-09-27T10:58:25;10.79;95.37
64997;SHT31;51545;51.568;6.998;2022-09-27T11:01:03;10.72;94.74
64997;SHT31;51545;51.568;6.998;2022-09-27T11:03:38;10.73;94.44
64997;SHT31;51545;51.568;6.998;2022-09-27T11:08:52;10.93;94.47
64997;SHT31;51545;51.568;6.998;2022-09-27T11:11:26;10.90;94.85
64997;SHT31;51545;51.568;6.998;2022-09-27T11:21:57;10.69;94.42
64997;SHT31;51545;51.568;6.998;2022-09-27T11:30:20;11.14;92.67
64997;SHT31;51545;51.568;6.998;2022-09-27T11:33:18;11.16;92.53
64997;SHT31;51545;51.568;6.998;2022-09-27T11:39:03;11.14;91.21
64997;SHT31;51545;51.568;6.998;2022-09-27T11:49:37;10.95;90.73
64997;SHT31;51545;51.568;6.998;2022-09-27T12:01:44;11.25;90.84
64997;SHT31;51545;51.568;6.998;2022-09-27T12:04:27;11.60;90.52
64997;SHT31;51545;51.568;6.998;2022-09-27T12:09:33;11.14;89.63
64997;SHT31;51545;51.568;6.998;2022-09-27T12:12:10;11.22;91.24
64997;SHT31;51545;51.568;6.998;2022-09-27T12:14:47;11.16;91.62
64997;SHT31;51545;51.568;6.998;2022-09-27T12:17:18;11.35;91.95
64997;SHT31;51545;51.568;6.998;2022-09-27T12:19:50;11.46;90.56
64997;SHT31;51545;51.568;6.998;2022-09-27T12:22:19;11.45;91.46
64997;SHT31;51545;51.568;6.998;2022-09-27T12:24:51;11.39;88.98
64997;SHT31;51545;51.568;6.998;2022-09-27T12:28:03;11.53;88.53
64997;SHT31;51545;51.568;6.998;2022-09-27T12:30:11;11.59;88.23
64997;SHT31;51545;51.568;6.998;2022-09-27T12:35:49;11.26;88.25
64997;SHT31;51545;51.568;6.998;2022-09-27T12:38:22;11.16;89.63
64997;SHT31;51545;51.568;6.998;2022-09-27T12:41:00;11.36;89.87
64997;SHT31;51545;51.568;6.998;2022-09-27T12:43:30;11.43;90.72
64997;SHT31;51545;51.568;6.998;2022-09-27T12:51:24;11.87;88.46
64997;SHT31;51545;51.568;6.998;2022-09-27T12:54:22;11.69;87.74
64997;SHT31;51545;51.568;6.998;2022-09-27T13:00:08;11.36;89.32
64997;SHT31;51545;51.568;6.998;2022-09-27T13:02:52;11.40;89.84
64997;SHT31;51545;51.568;6.998;2022-09-27T13:08:25;11.16;90.34
64997;SHT31;51545;51.568;6.998;2022-09-27T13:13:53;11.15;90.59
64997;SHT31;51545;51.568;6.998;2022-09-27T13:16:20;11.43;90.01
64997;SHT31;51545;51.568;6.998;2022-09-27T13:22:02;11.58;88.74
64997;SHT31;51545;51.568;6.998;2022-09-27T13:27:23;11.60;86.03
64997;SHT31;51545;51.568;6.998;2022-09-27T13:35:34;11.97;84.07
64997;SHT31;51545;51.568;6.998;2022-09-27T13:37:59;12.25;84.96
64997;SHT31;51545;51.568;6.998;2022-09-27T13:40:31;12.08;83.58
64997;SHT31;51545;51.568;6.998;2022-09-27T13:51:02;11.45;84.89
64997;SHT31;51545;51.568;6.998;2022-09-27T13:53:36;11.80;86.54
64997;SHT31;51545;51.568;6.998;2022-09-27T13:56:04;11.67;84.51
64997;SHT31;51545;51.568;6.998;2022-09-27T14:01:10;12.08;83.78
64997;SHT31;51545;51.568;6.998;2022-09-27T14:03:56;12.81;82.31
64997;SHT31;51545;51.568;6.998;2022-09-27T14:06:33;13.18;81.03
64997;SHT31;51545;51.568;6.998;2022-09-27T14:09:06;13.29;78.61
64997;SHT31;51545;51.568;6.998;2022-09-27T14:11:58;13.14;79.83
64997;SHT31;51545;51.568;6.998;2022-09-27T14:14:29;12.66;79.73
64997;SHT31;51545;51.568;6.998;2022-09-27T14:17:00;12.59;80.72
64997;SHT31;51545;51.568;6.998;2022-09-27T14:19:26;12.52;81.29
64997;SHT31;51545;51.568;6.998;2022-09-27T14:21:53;12.78;80.78
64997;SHT31;51545;51.568;6.998;2022-09-27T14:24:26;12.77;81.77
64997;SHT31;51545;51.568;6.998;2022-09-27T14:29:29;12.43;80.23
64997;SHT31;51545;51.568;6.998;2022-09-27T14:32:32;12.08;81.55
64997;SHT31;51545;51.568;6.998;2022-09-27T14:38:07;12.18;81.16
64997;SHT31;51545;51.568;6.998;2022-09-27T14:40:39;13.23;80.40
64997;SHT31;51545;51.568;6.998;2022-09-27T14:43:17;13.39;76.00
64997;SHT31;51545;51.568;6.998;2022-09-27T14:45:44;14.29;77.64
64997;SHT31;51545;51.568;6.998;2022-09-27T14:48:25;14.57;73.79
64997;SHT31;51545;51.568;6.998;2022-09-27T14:51:02;14.08;73.84
64997;SHT31;51545;51.568;6.998;2022-09-27T14:53:31;12.94;77.21
64997;SHT31;51545;51.568;6.998;2022-09-27T14:55:58;12.83;77.19
64997;SHT31;51545;51.568;6.998;2022-09-27T14:58:26;12.40;77.09
64997;SHT31;51545;51.568;6.998;2022-09-27T15:00:53;12.36;79.64
64997;SHT31;51545;51.568;6.998;2022-09-27T15:03:20;12.20;78.73
64997;SHT31;51545;51.568;6.998;2022-09-27T15:05:49;12.14;78.32
64997;SHT31;51545;51.568;6.998;2022-09-27T15:08:16;11.98;77.18
64997;SHT31;51545;51.568;6.998;2022-09-27T15:10:42;11.99;78.30
64997;SHT31;51545;51.568;6.998;2022-09-27T15:13:10;12.17;78.84
64997;SHT31;51545;51.568;6.998;2022-09-27T15:15:40;12.25;78.58
64997;SHT31;51545;51.568;6.998;2022-09-27T15:21:27;12.17;78.62
64997;SHT31;51545;51.568;6.998;2022-09-27T15:23:58;12.11;78.18
64997;SHT31;51545;51.568;6.998;2022-09-27T15:26:39;12.04;78.62
64997;SHT31;51545;51.568;6.998;2022-09-27T15:29:17;12.17;78.25
64997;SHT31;51545;51.568;6.998;2022-09-27T15:31:44;12.53;78.63
64997;SHT31;51545;51.568;6.998;2022-09-27T15:34:16;12.90;76.49
64997;SHT31;51545;51.568;6.998;2022-09-27T15:39:11;12.55;76.84
64997;SHT31;51545;51.568;6.998;2022-09-27T15:49:56;11.90;78.69
64997;SHT31;51545;51.568;6.998;2022-09-27T15:52:39;11.95;78.50
64997;SHT31;51545;51.568;6.998;2022-09-27T15:55:14;11.93;79.00
64997;SHT31;51545;51.568;6.998;2022-09-27T15:57:45;12.06;79.56
64997;SHT31;51545;51.568;6.998;2022-09-27T16:00:14;12.08;78.30
64997;SHT31;51545;51.568;6.998;2022-09-27T16:02:42;11.98;78.97
64997;SHT31;51545;51.568;6.998;2022-09-27T16:05:08;11.77;78.93
64997;SHT31;51545;51.568;6.998;2022-09-27T16:07:34;11.81;79.33
64997;SHT31;51545;51.568;6.998;2022-09-27T16:10:00;11.80;80.04
64997;SHT31;51545;51.568;6.998;2022-09-27T16:12:25;11.80;80.51
64997;SHT31;51545;51.568;6.998;2022-09-27T16:14:54;11.83;80.52
64997;SHT31;51545;51.568;6.998;2022-09-27T16:17:20;11.76;80.66
64997;SHT31;51545;51.568;6.998;2022-09-27T16:19:46;11.80;80.70
64997;SHT31;51545;51.568;6.998;2022-09-27T16:22:12;11.81;81.87
64997;SHT31;51545;51.568;6.998;2022-09-27T16:24:37;11.78;81.60
64997;SHT31;51545;51.568;6.998;2022-09-27T16:27:03;11.77;80.95
64997;SHT31;51545;51.568;6.998;2022-09-27T16:29:28;11.69;81.72
64997;SHT31;51545;51.568;6.998;2022-09-27T16:31:54;11.62;81.51
64997;SHT31;51545;51.568;6.998;2022-09-27T16:34:21;11.55;81.89
64997;SHT31;51545;51.568;6.998;2022-09-27T16:36:48;11.55;81.86
64997;SHT31;51545;51.568;6.998;2022-09-27T16:39:14;11.45;82.08
64997;SHT31;51545;51.568;6.998;2022-09-27T16:41:39;11.39;82.35
64997;SHT31;51545;51.568;6.998;2022-09-27T16:44:06;11.29;83.07
64997;SHT31;51545;51.568;6.998;2022-09-27T16:46:34;11.32;83.23
64997;SHT31;51545;51.568;6.998;2022-09-27T16:49:00;11.12;83.39
64997;SHT31;51545;51.568;6.998;2022-09-27T16:51:26;10.94;82.40
64997;SHT31;51545;51.568;6.998;2022-09-27T16:54:10;10.88;82.94
64997;SHT31;51545;51.568;6.998;2022-09-27T16:56:37;10.93;82.31
64997;SHT31;51545;51.568;6.998;2022-09-27T16:59:02;10.86;80.83
64997;SHT31;51545;51.568;6.998;2022-09-27T17:01:31;10.81;80.10
64997;SHT31;51545;51.568;6.998;2022-09-27T17:03:58;10.76;80.06
64997;SHT31;51545;51.568;6.998;2022-09-27T17:06:24;10.72;80.13
64997;SHT31;51545;51.568;6.998;2022-09-27T17:08:52;10.76;80.59
64997;SHT31;51545;51.568;6.998;2022-09-27T17:11:19;10.63;81.55
64997;SHT31;51545;51.568;6.998;2022-09-27T17:13:46;10.65;81.66
64997;SHT31;51545;51.568;6.998;2022-09-27T17:16:13;10.56;82.60
64997;SHT31;51545;51.568;6.998;2022-09-27T17:18:39;10.53;82.40
64997;SHT31;51545;51.568;6.998;2022-09-27T17:21:05;10.53;82.40
64997;SHT31;51545;51.568;6.998;2022-09-27T17:23:32;10.52;83.15
64997;SHT31;51545;51.568;6.998;2022-09-27T17:26:05;10.53;83.86
64997;SHT31;51545;51.568;6.998;2022-09-27T17:28:33;10.40;84.43
64997;SHT31;51545;51.568;6.998;2022-09-27T17:31:01;10.59;84.43
64997;SHT31;51545;51.568;6.998;2022-09-27T17:33:28;10.56;84.98
64997;SHT31;51545;51.568;6.998;2022-09-27T17:35:59;10.59;84.93
64997;SHT31;51545;51.568;6.998;2022-09-27T17:38:26;10.40;85.13
64997;SHT31;51545;51.568;6.998;2022-09-27T17:40:58;10.45;85.15
64997;SHT31;51545;51.568;6.998;2022-09-27T17:43:25;10.31;85.29
64997;SHT31;51545;51.568;6.998;2022-09-27T17:45:51;10.29;85.71
64997;SHT31;51545;51.568;6.998;2022-09-27T17:48:16;10.32;85.73
64997;SHT31;51545;51.568;6.998;2022-09-27T17:51:00;10.22;86.05
64997;SHT31;51545;51.568;6.998;2022-09-27T17:53:26;10.26;86.27
64997;SHT31;51545;51.568;6.998;2022-09-27T17:55:51;10.26;86.15
64997;SHT31;51545;51.568;6.998;2022-09-27T17:58:18;10.32;86.14
64997;SHT31;51545;51.568;6.998;2022-09-27T18:00:44;10.18;86.28
64997;SHT31;51545;51.568;6.998;2022-09-27T18:03:10;10.15;86.32
64997;SHT31;51545;51.568;6.998;2022-09-27T18:05:36;10.20;86.57
64997;SHT31;51545;51.568;6.998;2022-09-27T18:08:01;10.24;86.32
64997;SHT31;51545;51.568;6.998;2022-09-27T18:10:28;10.20;86.62
64997;SHT31;51545;51.568;6.998;2022-09-27T18:12:53;10.21;86.73
64997;SHT31;51545;51.568;6.998;2022-09-27T18:15:20;10.25;87.17
64997;SHT31;51545;51.568;6.998;2022-09-27T18:17:48;10.22;86.60
64997;SHT31;51545;51.568;6.998;2022-09-27T18:20:14;10.17;87.39
64997;SHT31;51545;51.568;6.998;2022-09-27T18:22:39;10.14;87.85
64997;SHT31;51545;51.568;6.998;2022-09-27T18:25:05;10.11;88.09
64997;SHT31;51545;51.568;6.998;2022-09-27T18:27:31;10.07;88.68
64997;SHT31;51545;51.568;6.998;2022-09-27T18:29:58;10.03;88.90
64997;SHT31;51545;51.568;6.998;2022-09-27T18:32:25;10.03;89.97
64997;SHT31;51545;51.568;6.998;2022-09-27T18:34:51;9.97;90.22
64997;SHT31;51545;51.568;6.998;2022-09-27T18:37:16;9.91;90.66
64997;SHT31;51545;51.568;6.998;2022-09-27T18:39:42;9.91;91.00
64997;SHT31;51545;51.568;6.998;2022-09-27T18:42:07;9.87;91.32
64997;SHT31;51545;51.568;6.998;2022-09-27T18:44:33;9.74;91.56
64997;SHT31;51545;51.568;6.998;2022-09-27T18:46:58;9.79;91.91
64997;SHT31;51545;51.568;6.998;2022-09-27T18:49:24;9.71;92.51
64997;SHT31;51545;51.568;6.998;2022-09-27T18:51:49;9.65;92.54
64997;SHT31;51545;51.568;6.998;2022-09-27T18:54:19;9.56;92.59
64997;SHT31;51545;51.568;6.998;2022-09-27T18:56:46;9.48;92.97
64997;SHT31;51545;51.568;6.998;2022-09-27T18:59:13;9.40;93.46
64997;SHT31;51545;51.568;6.998;2022-09-27T19:01:40;9.42;93.94